Ratho, United Kingdom
Current Conditions -  °F | °C
As of 4:20 PM on Thursday 27 Nov 2014 (Local Time) from EGPH Reporting Station
Drizzle Drizzle  
Wind Chill: 45°   Ceiling: 400
Heat Index: 48°   Visibility: 2.8mi
Dew Point: 46°   Wind: 8mph
Humidity: 93%   Direction: 80°E
Pressure: 29.56"   Gusts: NA
Location:  55.92°N, 3.38°W
Report Text: EGPH 271620Z 08007KT 4600 -DZ BR BKN004 OVC007 09/08 Q1001
Loading
Personal Weather Stations






























Interactive Weather Map New forecast layout! Learn more

10-Day Weather Forecast

Advertisements
Track Severe Weather on mobile